Porum, Oklahoma
Current Conditions -  °F | °C
As of 10:55 AM on Friday 19 Dec 2014 (Local Time) from KGZL Reporting Station
Haze Haze  
Wind Chill: 37°   Ceiling: 800
Heat Index: 41°   Visibility: 4mi
Dew Point: 37°   Wind: 6mph
Humidity: 87%   Direction: 110°ESE
Pressure: 30.25"   Gusts: NA
Location:  35.36°N, 95.27°W
Report Text: KGZL 191655Z AUTO 11005KT 4SM BR OVC008 05/03 A3025 RMK AO2
Loading
Personal Weather Stations






























Interactive Weather Map New forecast layout! Learn more

10-Day Weather Forecast

Advertisements
Track Severe Weather on mobile